Portada
METAR-TAF:

METAR-TAF

Aeroports :

Taree, Austràlia

latitud: 31-53-19S, longitud: 152-30-50E, altitud: 12 m

Observació

L'informe es va fer fa 30 minuts, a les 08:00 UTC
Vent 10 kt del Sud
Temperatura 20°C
Humitat 73%
Pressió 1018 hPa
Visibilitat 10 km o més

METAR: YTRE 170800Z AUTO 17010KT 9999 // NCD 20/15 Q1018

Hora: 19:30 (08:30 UTC)

Pronòstic

L'informe es va fer fa 1 hora i 29 minuts, a les 07:01 UTC
Pronòstic vàlid del 17 a les 08 UTC al 17 a les 20 UTC
Vent 10 kt del Sud-Est
Visibilitat: 4000 m
Núvols disperses a una alçada de 1000 ft
Cel ennuvolat a una alçada de 2000 ft
Cel ennuvolat a una alçada de 1000 ft
xàfecs de pluja, xàfecs de pluja

TAF: YTRE 170701Z 1708/1720 14010KT 9999 -SHRA SCT010 BKN020 INTER 1708/1720 4000 SHRA BKN010

Observacions i pronòstics meteorològics de més de 4000 aeroports (METAR i TAF).

Les estacions disponibles són els punts grocs i vermells al mapa.

Posi el ratolí al punt desitjat per veure el nom de l'estació.

Feu clic per veure les observacions i els pronòstics meteorològics.

Per canviar el mapa: feu clic els botons verds amb una creu de color negre per apropar; al botó verd amb un guió per allunyar la imatge; o en les fletxes verdes per a mapes adjacents.


METAR-TAF: